עמוד ראשי
METAR-TAF:

METAR-TAF

שדות תעופה :

אדנה, טורקיה

קו רוחב: 36-59N, קו אורך: 035-18E, גובה: 20מטר

תצפית מזג אוויר נוכחית

הדו"ח נערך לפני 35דקות, בשעה 21:20 UTC
רוח 3קשר מכיוון דרום-מזרח
טמפרטורת 27 צלסיוס
לחות 89%
לחץ 1005 hPa
ראות 10 קילומטר או יותר
עננים פזורים בגובה 3000רגל

METAR: LTAF 232120Z 13003KT 9999 SCT030 27/25 Q1005 NOSIG RMK RWY23 18003KT 150V210 3CU030

זמן: 00:55 (21:55 UTC)


TAF: חסר

תצפיות ותחזיות מזג אוויר לגבי יותר מ- 4,000 שדות תעופה ברחבי העולם. דוחות METAR ו- TAF.

התחנות הזמינות מסומנות בנקודות צהובות ואדומות על גבי המפה.

העבר את העכבר לנקודה הצבעונית על מנת לראות את שם התחנה.

לאחר מכן, לחץ כדי לראות את תוכן ואת תחזיות מזג האוויר.

כדי לשנות את המפה: לחץ על הכפתורים הירוקים עם הפלוס השחור כדי להתקרב; על הכפתור הירוק עם המקף כדי להתרחק; או בחיצים הירוקים למפות סמוכות.


METAR-TAF: